createdAt,value
2018-11-01T00:01:58.716Z,3.23
2018-11-01T00:04:49.804Z,3.13
2018-11-01T00:10:51.837Z,4.27
2018-11-01T00:13:42.965Z,3.17
2018-11-01T00:16:33.991Z,3.03
2018-11-01T00:19:25.704Z,3.50
2018-11-01T00:22:18.112Z,2.80
2018-11-01T00:25:11.102Z,3.50
2018-11-01T00:28:02.127Z,2.77
2018-11-01T00:30:53.099Z,3.20
2018-11-01T00:33:44.073Z,3.20
2018-11-01T00:36:35.091Z,3.20
2018-11-01T00:39:27.202Z,3.07
2018-11-01T00:42:18.224Z,3.20
2018-11-01T00:45:10.328Z,3.23
2018-11-01T00:48:01.378Z,3.57
2018-11-01T00:51:11.187Z,3.00
2018-11-01T00:54:02.388Z,3.53
2018-11-01T00:56:53.518Z,3.03
2018-11-01T00:59:43.982Z,3.17
2018-11-01T01:02:34.553Z,3.10
2018-11-01T01:05:25.701Z,3.50
2018-11-01T01:08:16.727Z,3.03
2018-11-01T01:11:07.775Z,3.03
2018-11-01T01:13:58.924Z,3.30
2018-11-01T01:16:50.100Z,3.17
2018-11-01T01:19:41.202Z,3.00
2018-11-01T01:22:32.302Z,3.00
2018-11-01T01:25:23.393Z,3.30
2018-11-01T01:28:14.473Z,3.17
2018-11-01T01:31:05.635Z,3.07
2018-11-01T01:33:56.946Z,3.37
2018-11-01T01:36:48.124Z,2.90
2018-11-01T01:39:39.232Z,3.10
2018-11-01T01:42:48.653Z,2.87
2018-11-01T01:45:40.139Z,3.07
2018-11-01T01:48:31.282Z,2.67
2018-11-01T01:51:22.382Z,2.80
2018-11-01T01:54:13.498Z,2.70
2018-11-01T01:57:05.415Z,2.83
2018-11-01T01:59:56.537Z,2.90
2018-11-01T02:02:48.961Z,2.93
2018-11-01T02:05:40.023Z,2.87
2018-11-01T02:08:31.187Z,3.30
2018-11-01T02:11:22.153Z,3.17
2018-11-01T02:14:14.385Z,3.00
2018-11-01T02:17:05.456Z,2.57
2018-11-01T02:19:56.627Z,2.60
2018-11-01T02:22:48.034Z,2.90
2018-11-01T02:25:39.142Z,2.90
2018-11-01T02:28:30.152Z,3.00
2018-11-01T02:31:21.196Z,2.90
2018-11-01T02:34:30.899Z,3.07
2018-11-01T02:37:21.983Z,2.93
2018-11-01T02:40:14.457Z,2.93
2018-11-01T02:43:05.545Z,3.00
2018-11-01T02:45:59.842Z,2.73
2018-11-01T02:48:50.897Z,3.33
2018-11-01T02:51:41.953Z,3.10
2018-11-01T02:54:52.003Z,3.00
2018-11-01T02:58:01.880Z,2.77
2018-11-01T03:00:52.939Z,3.23
2018-11-01T03:03:44.449Z,3.20
2018-11-01T03:06:35.419Z,3.10
2018-11-01T03:09:26.930Z,2.87
2018-11-01T03:12:17.988Z,3.07
2018-11-01T03:15:10.700Z,3.17
2018-11-01T03:18:02.147Z,2.90
2018-11-01T03:20:53.342Z,3.23
2018-11-01T03:23:44.393Z,2.87
2018-11-01T03:26:35.426Z,3.07
2018-11-01T03:29:26.367Z,3.40
2018-11-01T03:32:18.009Z,3.20
2018-11-01T03:35:10.616Z,3.20
2018-11-01T03:38:01.640Z,3.77
2018-11-01T03:40:52.674Z,3.83
2018-11-01T03:43:44.127Z,3.13
2018-11-01T03:46:35.287Z,3.87
2018-11-01T03:49:26.529Z,3.60
2018-11-01T03:52:17.600Z,3.43
2018-11-01T03:55:11.673Z,3.60
2018-11-01T03:58:21.423Z,3.83
2018-11-01T04:01:12.483Z,4.00
2018-11-01T04:04:03.552Z,3.57
2018-11-01T04:06:54.596Z,3.43
2018-11-01T04:09:45.666Z,3.57
2018-11-01T04:12:36.662Z,3.57
2018-11-01T04:15:28.124Z,4.50
2018-11-01T04:18:19.164Z,3.87
2018-11-01T04:21:28.495Z,3.77
2018-11-01T04:24:20.266Z,4.00
2018-11-01T04:27:11.548Z,4.20
2018-11-01T04:30:02.669Z,4.50
2018-11-01T04:32:53.723Z,3.77
2018-11-01T04:35:44.799Z,4.30
2018-11-01T04:38:35.898Z,4.30
2018-11-01T04:41:26.939Z,4.13
2018-11-01T04:44:18.097Z,4.60
2018-11-01T04:47:09.287Z,4.37
2018-11-01T04:50:18.589Z,4.43
2018-11-01T04:53:09.464Z,4.37
2018-11-01T04:56:00.387Z,4.50
2018-11-01T04:58:51.436Z,4.87
2018-11-01T05:01:42.366Z,4.57
2018-11-01T05:04:33.405Z,5.00
2018-11-01T05:07:24.282Z,4.37
2018-11-01T05:10:15.329Z,4.60
2018-11-01T05:13:07.202Z,4.50
2018-11-01T05:15:58.203Z,4.80
2018-11-01T05:18:49.251Z,4.83
2018-11-01T05:21:41.479Z,5.43
2018-11-01T05:24:32.461Z,5.80
2018-11-01T05:27:42.563Z,5.03
2018-11-01T05:30:33.187Z,5.87
2018-11-01T05:33:23.479Z,5.10
2018-11-01T05:36:13.859Z,5.10
2018-11-01T05:39:04.319Z,4.90
2018-11-01T05:41:54.631Z,5.70
2018-11-01T05:44:45.031Z,5.77
2018-11-01T05:47:35.352Z,6.87
2018-11-01T05:50:25.650Z,6.53
2018-11-01T05:53:16.027Z,6.97
2018-11-01T05:56:06.320Z,6.97
2018-11-01T05:58:56.680Z,6.40
2018-11-01T06:02:05.572Z,6.07
2018-11-01T06:04:57.797Z,6.73
2018-11-01T06:08:06.628Z,5.50
2018-11-01T06:10:57.046Z,5.07
2018-11-01T06:13:47.352Z,5.47
2018-11-01T06:16:37.658Z,5.53
2018-11-01T06:19:27.930Z,5.80
2018-11-01T06:22:18.315Z,5.43
2018-11-01T06:25:09.483Z,4.87
2018-11-01T06:28:00.636Z,4.97
2018-11-01T06:30:50.979Z,5.10
2018-11-01T06:33:42.556Z,5.87
2018-11-01T06:36:33.704Z,5.23
2018-11-01T06:39:24.079Z,5.30
2018-11-01T06:42:14.459Z,5.20
2018-11-01T06:45:04.813Z,5.17
2018-11-01T06:47:55.180Z,5.03
2018-11-01T06:50:47.137Z,4.93
2018-11-01T06:56:33.044Z,5.00
2018-11-01T06:59:23.567Z,5.13
2018-11-01T07:02:13.830Z,5.07
2018-11-01T07:05:04.190Z,5.03
2018-11-01T07:07:54.490Z,5.03
2018-11-01T07:10:44.848Z,5.20
2018-11-01T07:13:35.247Z,5.10
2018-11-01T07:16:44.252Z,5.60
2018-11-01T07:19:34.622Z,4.50
2018-11-01T07:22:25.059Z,4.80
2018-11-01T07:25:17.729Z,4.50
2018-11-01T07:28:08.162Z,4.90
2018-11-01T07:31:17.170Z,5.30
2018-11-01T07:34:07.624Z,4.87
2018-11-01T07:36:58.094Z,5.30
2018-11-01T07:39:48.508Z,5.03
2018-11-01T07:42:38.962Z,5.60
2018-11-01T07:45:29.934Z,5.47
2018-11-01T07:48:20.186Z,6.50
2018-11-01T07:51:10.739Z,5.70
2018-11-01T07:54:01.113Z,5.20
2018-11-01T07:56:51.519Z,5.87
2018-11-01T07:59:41.900Z,6.63
2018-11-01T08:02:32.368Z,5.77
2018-11-01T08:05:22.715Z,5.30
2018-11-01T08:08:14.932Z,5.90
2018-11-01T08:11:23.820Z,6.43
2018-11-01T08:14:14.202Z,6.63
2018-11-01T08:17:23.664Z,6.07
2018-11-01T08:20:15.501Z,6.00
2018-11-01T08:23:05.612Z,6.40
2018-11-01T08:25:55.891Z,6.37
2018-11-01T08:28:46.326Z,6.80
2018-11-01T08:31:38.035Z,6.47
2018-11-01T08:34:28.372Z,6.63
2018-11-01T08:37:37.746Z,6.63
2018-11-01T08:40:28.411Z,6.80
2018-11-01T08:43:19.432Z,6.90
2018-11-01T08:46:03.221Z,5.83
2018-11-01T08:48:55.111Z,6.53
2018-11-01T08:52:06.472Z,7.73
2018-11-01T08:55:01.863Z,8.37
2018-11-01T08:58:13.440Z,7.90
2018-11-01T09:01:06.227Z,8.03
2018-11-01T09:03:59.051Z,7.80
2018-11-01T09:10:11.770Z,7.47
2018-11-01T09:13:07.079Z,7.73
2018-11-01T09:15:57.392Z,8.27
2018-11-01T09:18:47.702Z,7.57
2018-11-01T09:21:39.482Z,7.10
2018-11-01T09:27:40.955Z,8.30
2018-11-01T09:30:31.402Z,7.73
2018-11-01T09:33:21.778Z,7.43
2018-11-01T09:36:12.162Z,7.80
2018-11-01T09:39:02.452Z,7.07
2018-11-01T09:41:52.765Z,8.00
2018-11-01T09:44:43.115Z,7.43
2018-11-01T09:47:33.644Z,7.60
2018-11-01T09:50:23.851Z,8.43
2018-11-01T09:53:14.151Z,8.93
2018-11-01T09:56:04.557Z,9.07
2018-11-01T09:58:54.824Z,8.67
2018-11-01T10:01:45.125Z,9.00
2018-11-01T10:04:35.465Z,10.10
2018-11-01T10:07:25.826Z,8.50
2018-11-01T10:10:16.195Z,9.57
2018-11-01T10:16:17.134Z,9.90
2018-11-01T10:19:09.641Z,8.90
2018-11-01T10:22:00.064Z,9.60
2018-11-01T10:24:50.402Z,9.67
2018-11-01T10:27:40.837Z,9.20
2018-11-01T10:30:32.526Z,9.50
2018-11-01T10:33:22.839Z,10.70
2018-11-01T10:36:13.201Z,10.37
2018-11-01T10:39:03.570Z,9.90
2018-11-01T10:41:53.898Z,10.07
2018-11-01T10:44:44.332Z,9.53
2018-11-01T10:47:34.817Z,9.43
2018-11-01T10:50:25.010Z,9.67
2018-11-01T10:53:15.347Z,9.17
2018-11-01T10:56:05.657Z,9.27
2018-11-01T10:58:57.238Z,9.47
2018-11-01T11:02:06.184Z,9.33
2018-11-01T11:04:56.606Z,8.60
2018-11-01T11:07:48.120Z,9.27
2018-11-01T11:10:38.630Z,8.80
2018-11-01T11:13:29.650Z,9.17
2018-11-01T11:16:19.998Z,9.30
2018-11-01T11:19:10.405Z,9.90
2018-11-01T11:22:02.053Z,9.13
2018-11-01T11:25:12.469Z,9.10
2018-11-01T11:28:02.829Z,8.57
2018-11-01T11:30:53.170Z,9.40
2018-11-01T11:33:43.550Z,9.30
2018-11-01T11:36:34.901Z,9.53
2018-11-01T11:39:25.623Z,9.43
2018-11-01T11:42:16.274Z,9.73
2018-11-01T11:45:07.235Z,9.43
2018-11-01T11:47:58.134Z,9.03
2018-11-01T11:50:48.484Z,9.00
2018-11-01T11:53:58.149Z,9.33
2018-11-01T11:56:48.541Z,9.67
2018-11-01T11:59:39.214Z,8.80
2018-11-01T12:02:29.636Z,9.77
2018-11-01T12:05:20.689Z,8.97
2018-11-01T12:08:11.842Z,9.70
2018-11-01T12:11:02.313Z,9.10
2018-11-01T12:13:52.763Z,10.20
2018-11-01T12:16:43.034Z,9.87
2018-11-01T12:19:34.827Z,10.27
2018-11-01T12:22:26.656Z,9.50
2018-11-01T12:25:17.017Z,9.20
2018-11-01T12:28:27.004Z,9.07
2018-11-01T12:31:17.293Z,9.50
2018-11-01T12:34:08.130Z,9.83
2018-11-01T12:36:58.391Z,9.63
2018-11-01T12:39:48.752Z,8.57
2018-11-01T12:42:39.140Z,9.27
2018-11-01T12:45:29.475Z,9.30
2018-11-01T12:48:19.783Z,10.10
2018-11-01T12:51:10.098Z,9.90
2018-11-01T12:54:01.906Z,9.60
2018-11-01T12:56:52.243Z,9.73
2018-11-01T12:59:43.906Z,10.20
2018-11-01T13:02:34.329Z,10.47
2018-11-01T13:05:26.028Z,10.20
2018-11-01T13:08:35.811Z,10.53
2018-11-01T13:11:27.324Z,10.77
2018-11-01T13:14:17.750Z,10.63
2018-11-01T13:17:08.139Z,10.77
2018-11-01T13:19:58.554Z,10.20
2018-11-01T13:22:49.035Z,10.83
2018-11-01T13:25:59.849Z,11.10
2018-11-01T13:29:09.098Z,10.67
2018-11-01T13:31:59.717Z,11.30
2018-11-01T13:35:09.290Z,10.33
2018-11-01T13:38:00.624Z,12.03
2018-11-01T13:41:11.729Z,11.23
2018-11-01T13:44:20.947Z,11.40
2018-11-01T13:47:30.035Z,11.53
2018-11-01T13:50:02.342Z,10.93
2018-11-01T13:52:52.960Z,11.00
2018-11-01T13:55:43.381Z,11.80
2018-11-01T13:58:41.320Z,11.00
2018-11-01T14:01:31.739Z,10.47
2018-11-01T14:04:40.946Z,10.27
2018-11-01T14:07:31.331Z,10.73
2018-11-01T14:10:21.702Z,10.90
2018-11-01T14:13:31.632Z,11.90
2018-11-01T14:16:21.920Z,29.50
2018-11-01T14:19:12.289Z,11.63
2018-11-01T14:22:21.135Z,10.87
2018-11-01T14:25:12.694Z,10.80
2018-11-01T14:28:03.058Z,11.47
2018-11-01T14:31:12.393Z,11.37
2018-11-01T14:34:03.349Z,11.07
2018-11-01T14:36:53.942Z,10.50
2018-11-01T14:40:03.123Z,11.63
2018-11-01T14:42:53.884Z,11.33
2018-11-01T14:45:44.255Z,11.77
2018-11-01T14:48:34.631Z,10.87
2018-11-01T14:51:25.699Z,11.60
2018-11-01T14:54:19.216Z,11.73
2018-11-01T14:57:11.909Z,12.10
2018-11-01T15:00:07.370Z,12.73
2018-11-01T15:02:59.715Z,12.07
2018-11-01T15:05:50.596Z,11.97
2018-11-01T15:08:59.750Z,11.23
2018-11-01T15:11:51.037Z,11.73
2018-11-01T15:14:45.937Z,11.63
2018-11-01T15:17:36.272Z,11.53
2018-11-01T15:20:27.866Z,11.33
2018-11-01T15:23:18.183Z,11.53
2018-11-01T15:26:08.902Z,11.57
2018-11-01T15:28:59.477Z,11.57
2018-11-01T15:31:51.039Z,12.37
2018-11-01T15:34:42.294Z,14.80
2018-11-01T15:37:33.568Z,13.60
2018-11-01T15:40:43.108Z,12.30
2018-11-01T15:43:34.312Z,13.93
2018-11-01T15:46:24.939Z,13.93
2018-11-01T15:49:18.097Z,12.87
2018-11-01T15:52:26.696Z,12.77
2018-11-01T15:55:17.862Z,13.70
2018-11-01T15:58:08.387Z,14.27
2018-11-01T16:00:59.791Z,12.77
2018-11-01T16:03:53.846Z,13.20
2018-11-01T16:06:44.586Z,12.57
2018-11-01T16:09:35.012Z,13.77
2018-11-01T16:12:25.422Z,15.30
2018-11-01T16:15:17.246Z,15.80
2018-11-01T16:18:09.047Z,15.63
2018-11-01T16:20:59.385Z,14.90
2018-11-01T16:23:49.734Z,14.37
2018-11-01T16:26:40.496Z,14.63
2018-11-01T16:29:31.083Z,15.10
2018-11-01T16:32:22.004Z,15.10
2018-11-01T16:35:12.384Z,15.87
2018-11-01T16:38:21.874Z,16.00
2018-11-01T16:41:12.300Z,15.80
2018-11-01T16:44:04.183Z,17.30
2018-11-01T16:46:55.191Z,19.93
2018-11-01T16:49:45.852Z,18.43
2018-11-01T16:52:54.891Z,17.60
2018-11-01T16:55:46.451Z,17.73
2018-11-01T16:58:37.879Z,17.93
2018-11-01T17:01:47.317Z,16.73
2018-11-01T17:04:38.887Z,16.57
2018-11-01T17:07:30.107Z,17.87
2018-11-01T17:10:21.537Z,16.90
2018-11-01T17:13:12.638Z,17.33
2018-11-01T17:16:03.848Z,16.87
2018-11-01T17:18:55.480Z,17.93
2018-11-01T17:21:46.652Z,17.43
2018-11-01T17:24:37.139Z,18.70
2018-11-01T17:27:28.671Z,18.13
2018-11-01T17:30:21.474Z,18.30
2018-11-01T17:33:12.323Z,17.57
2018-11-01T17:36:21.598Z,18.50
2018-11-01T17:39:13.557Z,18.60
2018-11-01T17:42:05.534Z,18.57
2018-11-01T17:45:17.068Z,18.23
2018-11-01T17:48:07.537Z,15.80
2018-11-01T17:50:57.934Z,16.07
2018-11-01T17:53:50.173Z,18.53
2018-11-01T17:56:41.371Z,18.73
2018-11-01T17:59:31.772Z,17.13
2018-11-01T18:02:22.402Z,18.13
2018-11-01T18:05:14.016Z,17.53
2018-11-01T18:08:22.954Z,18.63
2018-11-01T18:11:13.393Z,18.07
2018-11-01T18:14:22.269Z,18.43
2018-11-01T18:17:12.680Z,17.37
2018-11-01T18:20:04.067Z,16.47
2018-11-01T18:22:54.458Z,17.60
2018-11-01T18:26:03.423Z,17.77
2018-11-01T18:35:11.108Z,19.07
2018-11-01T18:38:20.059Z,18.50
2018-11-01T18:41:10.925Z,18.37
2018-11-01T18:44:01.283Z,18.27
2018-11-01T18:46:52.009Z,18.00
2018-11-01T18:49:42.429Z,18.80
2018-11-01T18:52:32.900Z,17.73
2018-11-01T18:55:23.284Z,19.93
2018-11-01T18:58:13.589Z,19.83
2018-11-01T19:01:03.991Z,20.70
2018-11-01T19:03:54.391Z,19.63
2018-11-01T19:06:44.824Z,19.63
2018-11-01T19:09:35.270Z,18.80
2018-11-01T19:12:44.989Z,19.93
2018-11-01T19:15:35.296Z,17.47
2018-11-01T19:18:44.249Z,19.57
2018-11-01T19:21:35.073Z,20.43
2018-11-01T19:24:18.154Z,19.97
2018-11-01T19:27:09.225Z,19.10
2018-11-01T19:30:00.235Z,18.03
2018-11-01T19:32:50.650Z,19.60
2018-11-01T19:35:41.358Z,18.00
2018-11-01T19:38:50.259Z,20.00
2018-11-01T19:41:42.328Z,18.83
2018-11-01T19:51:10.463Z,19.03
2018-11-01T19:54:00.969Z,20.97
2018-11-01T19:56:51.982Z,21.10
2018-11-01T19:59:43.585Z,20.80
2018-11-01T20:02:53.566Z,21.50
2018-11-01T20:05:44.899Z,21.53
2018-11-01T20:08:36.042Z,21.83
2018-11-01T20:11:45.138Z,22.87
2018-11-01T20:14:36.070Z,19.97
2018-11-01T20:17:26.805Z,21.27
2018-11-01T20:20:17.378Z,20.87
2018-11-01T20:23:08.537Z,20.10
2018-11-01T20:25:59.987Z,20.77
2018-11-01T20:28:51.756Z,19.53
2018-11-01T20:31:43.181Z,19.13
2018-11-01T20:34:52.811Z,17.27
2018-11-01T20:37:43.980Z,16.40
2018-11-01T20:40:35.043Z,17.10
2018-11-01T20:46:15.648Z,16.27
2018-11-01T20:49:06.860Z,16.73
2018-11-01T20:51:57.681Z,16.23
2018-11-01T20:54:49.065Z,15.97
2018-11-01T20:57:43.301Z,15.07
2018-11-01T21:00:33.667Z,14.80
2018-11-01T21:03:24.924Z,14.53
2018-11-01T21:09:26.472Z,14.97
2018-11-01T21:12:18.396Z,15.63
2018-11-01T21:15:10.513Z,15.67
2018-11-01T21:18:20.264Z,17.23
2018-11-01T21:21:11.352Z,14.83
2018-11-01T21:24:02.710Z,15.97
2018-11-01T21:26:53.184Z,16.80
2018-11-01T21:32:54.005Z,18.37
2018-11-01T21:36:03.064Z,21.00
2018-11-01T21:38:53.332Z,19.07
2018-11-01T21:41:45.180Z,16.17
2018-11-01T21:44:37.715Z,15.07
2018-11-01T21:47:28.120Z,15.67
2018-11-01T21:50:38.827Z,15.43
2018-11-01T21:56:42.030Z,14.17
2018-11-01T21:59:33.274Z,15.07
2018-11-01T22:02:31.836Z,13.60
2018-11-01T22:08:35.794Z,13.67
2018-11-01T22:11:26.205Z,14.80
2018-11-01T22:14:35.301Z,13.10
2018-11-01T22:17:28.219Z,13.07
2018-11-01T22:20:19.545Z,13.07
2018-11-01T22:23:10.980Z,14.20
2018-11-01T22:26:02.256Z,13.43
2018-11-01T22:28:53.181Z,14.00
2018-11-01T22:31:44.291Z,14.60
2018-11-01T22:34:35.372Z,16.17
2018-11-01T22:37:45.126Z,15.30
2018-11-01T22:40:37.332Z,18.40
2018-11-01T22:43:48.145Z,19.23
2018-11-01T22:46:58.023Z,19.67
2018-11-01T22:50:08.123Z,19.57
2018-11-01T22:52:59.549Z,20.30
2018-11-01T22:55:50.489Z,19.73
2018-11-01T22:58:41.725Z,20.93
2018-11-01T23:01:52.164Z,21.00
2018-11-01T23:04:43.937Z,21.43
2018-11-01T23:07:34.994Z,21.10
2018-11-01T23:10:27.164Z,23.00
2018-11-01T23:13:37.404Z,22.10
2018-11-01T23:16:28.421Z,21.37
2018-11-01T23:22:36.055Z,20.50
2018-11-01T23:25:27.703Z,21.50
2018-11-01T23:28:18.945Z,19.37
2018-11-01T23:31:09.960Z,20.73
2018-11-01T23:34:01.075Z,21.27
2018-11-01T23:39:59.865Z,22.43
2018-11-01T23:43:09.232Z,23.20
2018-11-01T23:46:29.466Z,23.43
2018-11-01T23:49:39.403Z,23.17
2018-11-01T23:52:31.369Z,21.37
2018-11-01T23:55:22.323Z,21.40
